Time;durP1;ratioP1;P1;durP2;ratioP2;P2;SDS_P1;SDS_P2;PMS_P1;PMS_P2;Temp;Humidity;BMP_temperature;BMP_pressure;BME280_temperature;BME280_humidity;BME280_pressure;Samples;Min_cycle;Max_cycle;Signal;HPM_P1;HPM_P2
2021/05/12 00:00:52;;;;;;;68.28;41.10;;;;;;;10.58;87.08;100978.66;5104723;28;20027;-74
2021/05/12 00:03:17;;;;;;;62.65;39.92;;;;;;;10.66;86.43;100973.41;5103714;28;20374;-73
2021/05/12 00:05:42;;;;;;;66.90;40.10;;;;;;;10.61;85.60;100978.69;5102353;28;20519;-64
2021/05/12 00:08:08;;;;;;;66.38;39.47;;;;;;;10.62;84.23;100985.75;5104840;28;20016;-63
2021/05/12 00:10:33;;;;;;;61.67;38.92;;;;;;;10.60;84.51;100982.19;5101706;28;20351;-63
2021/05/12 00:12:59;;;;;;;63.75;39.65;;;;;;;10.61;84.59;100983.97;5105418;28;20053;-64
2021/05/12 00:15:24;;;;;;;64.88;39.25;;;;;;;10.61;85.11;100979.56;5102775;28;20375;-63
2021/05/12 00:17:51;;;;;;;61.22;38.85;;;;;;;10.70;84.83;100980.50;5103835;28;20470;-63
2021/05/12 00:20:28;;;;;;;62.28;38.90;;;;;;;10.69;82.92;100987.56;5102982;28;20038;-63
2021/05/12 00:22:59;;;;;;;59.78;37.67;;;;;;;10.66;83.62;100997.22;5104569;28;20024;-63
2021/05/12 00:25:25;;;;;;;62.53;37.88;;;;;;;10.65;84.00;100985.75;5102384;28;20039;-63
2021/05/12 00:27:50;;;;;;;61.28;37.95;;;;;;;10.61;84.15;100990.13;5102446;28;20028;-63
2021/05/12 00:30:19;;;;;;;66.18;37.75;;;;;;;10.62;83.80;100996.31;5103178;28;20119;-63
2021/05/12 00:32:45;;;;;;;60.10;36.42;;;;;;;10.64;84.49;100999.84;5103058;28;20027;-63
2021/05/12 00:35:11;;;;;;;62.30;37.50;;;;;;;10.63;83.61;100998.09;5103799;28;20055;-64
2021/05/12 00:37:37;;;;;;;66.50;39.40;;;;;;;10.63;84.43;100998.09;5102080;28;20374;-63
2021/05/12 00:40:04;;;;;;;69.60;44.97;;;;;;;10.59;85.25;100996.31;5104952;28;20024;-64
2021/05/12 00:42:30;;;;;;;68.95;44.22;;;;;;;10.58;86.27;100997.16;5097018;28;20172;-63
2021/05/12 00:44:57;;;;;;;78.45;47.88;;;;;;;10.53;87.17;100991.84;5104267;28;20098;-64
2021/05/12 00:47:30;;;;;;;82.82;48.95;;;;;;;10.48;88.16;100995.34;5102350;28;20028;-63
2021/05/12 00:49:56;;;;;;;75.85;48.85;;;;;;;10.50;88.31;100996.22;5104088;28;20115;-63
2021/05/12 00:52:23;;;;;;;73.38;47.92;;;;;;;10.46;88.17;101004.13;5102400;28;20050;-63
2021/05/12 00:54:49;;;;;;;84.55;50.95;;;;;;;10.45;89.09;101007.63;5103299;28;20063;-63
2021/05/12 00:57:14;;;;;;;85.30;50.58;;;;;;;10.42;88.35;100999.69;5103443;28;20059;-63
2021/05/12 00:59:42;;;;;;;83.97;51.80;;;;;;;10.39;90.16;101004.94;5100399;28;20424;-63
2021/05/12 01:02:07;;;;;;;82.35;50.78;;;;;;;10.37;89.20;100996.16;5104318;28;20094;-63
2021/05/12 01:04:33;;;;;;;81.93;50.33;;;;;;;10.37;89.99;101001.44;5100999;28;20058;-63
2021/05/12 01:06:58;;;;;;;80.85;49.50;;;;;;;10.39;89.97;101009.38;5104393;28;20103;-63
2021/05/12 01:09:24;;;;;;;75.80;49.53;;;;;;;10.39;89.33;101004.09;5101957;28;20093;-63
2021/05/12 01:11:49;;;;;;;81.03;50.88;;;;;;;10.36;89.46;100993.50;5103065;28;20016;-63
2021/05/12 01:14:15;;;;;;;81.00;49.72;;;;;;;10.36;89.15;100998.78;5103027;28;20459;-63
2021/05/12 01:16:42;;;;;;;77.75;49.47;;;;;;;10.39;89.17;100994.38;5102789;28;20061;-63
2021/05/12 01:19:08;;;;;;;77.10;49.45;;;;;;;10.35;89.23;100994.34;5108162;28;20012;-63
2021/05/12 01:21:33;;;;;;;81.57;49.47;;;;;;;10.34;89.53;101001.41;5105108;28;20040;-63
2021/05/12 01:23:58;;;;;;;72.03;46.10;;;;;;;10.32;87.87;101008.38;5108348;28;20480;-63
2021/05/12 01:26:24;;;;;;;76.47;47.45;;;;;;;10.32;88.87;100999.59;5105936;28;20028;-63
2021/05/12 01:28:53;;;;;;;82.05;49.22;;;;;;;10.33;89.03;101011.94;5106831;28;20064;-63
2021/05/12 01:31:23;;;;;;;76.82;47.38;;;;;;;10.33;88.56;101017.22;5106473;28;20030;-63
2021/05/12 01:33:50;;;;;;;74.00;47.47;;;;;;;10.28;88.31;101006.59;5104909;28;20491;-63
2021/05/12 01:36:16;;;;;;;72.90;45.42;;;;;;;10.26;87.64;101006.56;5106487;28;20019;-63
2021/05/12 01:38:44;;;;;;;70.18;44.83;;;;;;;10.26;87.98;101013.63;5106148;28;20024;-63
2021/05/12 01:41:09;;;;;;;63.30;42.63;;;;;;;10.24;87.71;101015.38;5107338;28;20023;-63
2021/05/12 01:43:35;;;;;;;75.57;45.78;;;;;;;10.22;88.03;101018.03;5104281;28;20050;-63
2021/05/12 01:46:02;;;;;;;69.72;43.25;;;;;;;10.23;87.97;101010.97;5100631;28;20078;-63
2021/05/12 01:48:29;;;;;;;71.45;42.53;;;;;;;10.22;86.89;101012.72;5107634;28;20019;-63
2021/05/12 01:50:55;;;;;;;70.68;43.83;;;;;;;10.22;87.00;101010.09;5105051;28;20074;-63
2021/05/12 01:53:21;;;;;;;67.80;42.17;;;;;;;10.24;86.28;100999.53;5107021;28;20020;-63
2021/05/12 01:55:47;;;;;;;67.05;39.85;;;;;;;10.21;85.90;101008.31;5106295;28;20454;-63
2021/05/12 01:58:12;;;;;;;68.68;41.85;;;;;;;10.21;86.30;100999.50;5105373;28;20024;-63
2021/05/12 02:00:43;;;;;;;60.55;39.30;;;;;;;10.20;85.76;101001.25;5107697;28;20523;-63
2021/05/12 02:03:10;;;;;;;62.83;38.92;;;;;;;10.23;86.43;101008.31;5104970;28;20028;-63
2021/05/12 02:05:37;;;;;;;62.53;38.72;;;;;;;10.21;86.58;101000.38;5107485;28;20068;-63
2021/05/12 02:08:06;;;;;;;59.28;35.95;;;;;;;10.16;85.31;101010.00;5104345;28;20043;-63
2021/05/12 02:10:32;;;;;;;60.03;37.05;;;;;;;10.11;85.88;101004.69;5100140;28;20031;-71
2021/05/12 02:12:58;;;;;;;56.53;36.10;;;;;;;10.09;85.80;101006.44;5107020;28;20020;-72
2021/05/12 02:15:23;;;;;;;59.22;35.47;;;;;;;10.04;86.12;101002.88;5105067;28;20505;-72
2021/05/12 02:17:49;;;;;;;58.53;36.33;;;;;;;9.99;87.15;101001.97;5105777;28;20020;-71
2021/05/12 02:20:18;;;;;;;59.88;36.10;;;;;;;9.95;87.14;100992.22;5105717;28;20035;-71
2021/05/12 02:22:43;;;;;;;59.28;35.17;;;;;;;9.94;87.55;101003.66;5105135;28;20540;-72
2021/05/12 02:25:09;;;;;;;59.03;36.03;;;;;;;9.90;87.99;101004.50;5106761;28;20028;-70
2021/05/12 02:27:36;;;;;;;57.42;36.20;;;;;;;9.86;88.96;101006.22;5103808;28;20020;-72
2021/05/12 02:30:04;;;;;;;60.78;38.05;;;;;;;9.85;88.97;101006.22;5106687;28;20030;-71
2021/05/12 02:32:29;;;;;;;63.03;38.97;;;;;;;9.89;89.62;101003.63;5103673;27;20109;-71
2021/05/12 02:34:56;;;;;;;60.38;37.85;;;;;;;9.84;89.89;101004.44;5104986;28;20058;-73
2021/05/12 02:37:21;;;;;;;67.43;41.38;;;;;;;9.83;90.51;101008.84;5104939;28;20115;-72
2021/05/12 02:39:47;;;;;;;65.28;40.72;;;;;;;9.79;91.36;101004.41;5105083;28;20485;-72
2021/05/12 02:42:12;;;;;;;68.65;42.80;;;;;;;9.75;92.39;101006.09;5106029;28;20473;-72
2021/05/12 02:44:38;;;;;;;68.43;43.00;;;;;;;9.75;93.47;100997.31;5103720;28;20048;-73
2021/05/12 02:47:03;;;;;;;66.90;42.85;;;;;;;9.79;93.87;101006.16;5107188;28;20098;-73
2021/05/12 02:49:28;;;;;;;72.78;44.72;;;;;;;9.77;94.13;101000.84;5103584;28;20111;-70
2021/05/12 02:51:53;;;;;;;74.00;46.08;;;;;;;9.77;94.87;101008.75;5105687;28;20028;-73
2021/05/12 02:54:19;;;;;;;68.55;43.65;;;;;;;9.82;94.64;101000.91;5105041;28;20027;-73
2021/05/12 02:56:45;;;;;;;78.43;45.22;;;;;;;9.77;94.88;101001.75;5104532;28;20024;-72
2021/05/12 02:59:10;;;;;;;72.32;44.72;;;;;;;9.76;95.92;101007.00;5105993;28;20024;-71
2021/05/12 03:01:36;;;;;;;73.70;44.58;;;;;;;9.75;95.93;101005.22;5101651;28;20567;-70
2021/05/12 03:04:01;;;;;;;75.22;46.10;;;;;;;9.66;96.69;100998.09;5106667;28;20470;-71
2021/05/12 03:06:27;;;;;;;74.32;45.83;;;;;;;9.67;97.57;101001.63;5103405;28;20028;-72
2021/05/12 03:08:52;;;;;;;76.28;45.17;;;;;;;9.56;98.29;101005.03;5105068;28;20077;-73
2021/05/12 03:11:17;;;;;;;81.82;48.55;;;;;;;9.52;99.02;101010.25;5105070;28;20031;-72
2021/05/12 03:13:42;;;;;;;74.47;46.72;;;;;;;9.51;100.00;101012.03;5103764;28;20051;-63
2021/05/12 03:16:08;;;;;;;76.95;46.65;;;;;;;9.50;100.00;101012.00;5105966;28;20426;-63
2021/05/12 03:18:33;;;;;;;74.93;46.90;;;;;;;9.54;100.00;101013.81;5102951;28;20020;-63
2021/05/12 03:20:58;;;;;;;77.72;47.67;;;;;;;9.54;100.00;101006.78;5105601;28;20043;-63
2021/05/12 03:23:24;;;;;;;74.47;47.08;;;;;;;9.57;100.00;101016.50;5103769;28;20054;-63
2021/05/12 03:25:49;;;;;;;74.30;46.42;;;;;;;9.64;100.00;101017.44;5104650;28;20077;-63
2021/05/12 03:28:14;;;;;;;80.60;48.05;;;;;;;9.60;100.00;101014.75;5104792;28;20023;-63
2021/05/12 03:30:40;;;;;;;73.45;46.00;;;;;;;9.65;100.00;101017.44;5103142;28;20374;-63
2021/05/12 03:33:07;;;;;;;77.65;47.40;;;;;;;9.64;100.00;101020.06;5105956;28;20347;-63
2021/05/12 03:35:35;;;;;;;75.05;47.50;;;;;;;9.60;100.00;101022.69;5098432;28;20028;-62
2021/05/12 03:38:01;;;;;;;82.68;50.22;;;;;;;9.57;100.00;101024.41;5105920;28;20446;-63
2021/05/12 03:40:28;;;;;;;85.20;52.35;;;;;;;9.56;100.00;101020.00;5102060;28;20078;-63
2021/05/12 03:42:57;;;;;;;78.53;49.33;;;;;;;9.54;100.00;101027.00;5104532;28;20047;-63
2021/05/12 03:45:23;;;;;;;85.65;51.70;;;;;;;9.47;100.00;101019.91;5103480;28;20102;-63
2021/05/12 03:47:50;;;;;;;89.18;52.08;;;;;;;9.47;100.00;101014.63;5104079;28;20139;-62
2021/05/12 03:50:17;;;;;;;95.10;55.25;;;;;;;9.41;100.00;101018.94;5104481;28;20028;-63
2021/05/12 03:52:43;;;;;;;95.35;58.10;;;;;;;9.38;100.00;101021.53;5102969;28;20036;-62
2021/05/12 03:55:09;;;;;;;91.63;55.17;;;;;;;9.31;100.00;101024.97;5105297;28;20072;-63
2021/05/12 03:57:35;;;;;;;87.80;53.03;;;;;;;9.26;100.00;101031.94;5101829;28;20482;-63
2021/05/12 04:00:01;;;;;;;96.47;57.28;;;;;;;9.20;100.00;101026.59;5105400;28;20028;-62
2021/05/12 04:02:26;;;;;;;99.22;58.95;;;;;;;9.13;100.00;101035.28;5102571;28;20031;-62
2021/05/12 04:04:52;;;;;;;115.78;62.70;;;;;;;9.10;100.00;101020.31;5104421;28;20024;-62
2021/05/12 04:07:17;;;;;;;106.38;60.88;;;;;;;9.05;100.00;101022.00;5103714;28;20374;-62
2021/05/12 04:09:42;;;;;;;110.63;64.32;;;;;;;9.00;100.00;101019.31;5102780;28;20060;-62
2021/05/12 04:12:08;;;;;;;107.38;62.95;;;;;;;8.94;100.00;101029.78;5104867;28;20027;-62
2021/05/12 04:14:33;;;;;;;114.60;67.95;;;;;;;8.91;100.00;101034.97;5102088;28;20067;-63
2021/05/12 04:16:59;;;;;;;117.75;68.85;;;;;;;8.90;100.00;101028.84;5104682;28;20026;-63
2021/05/12 04:19:24;;;;;;;117.88;67.75;;;;;;;8.87;100.00;101033.19;5102568;28;20016;-62
2021/05/12 04:21:49;;;;;;;122.57;69.60;;;;;;;8.86;100.00;101032.28;5103347;28;20125;-62
2021/05/12 04:24:15;;;;;;;121.15;71.38;;;;;;;8.84;100.00;101036.66;5103992;28;20123;-62
2021/05/12 04:26:40;;;;;;;120.97;71.47;;;;;;;8.75;100.00;101039.13;5101898;28;20027;-62
2021/05/12 04:29:06;;;;;;;119.07;69.82;;;;;;;8.75;100.00;101039.13;5105140;28;20092;-62
2021/05/12 04:31:33;;;;;;;124.72;71.85;;;;;;;8.64;100.00;101046.91;5101257;28;20023;-62
2021/05/12 04:33:58;;;;;;;131.80;75.20;;;;;;;8.61;100.00;101041.59;5104435;28;20036;-62
2021/05/12 04:36:24;;;;;;;131.43;75.40;;;;;;;8.59;100.00;101048.59;5102828;28;20374;-62
2021/05/12 04:38:49;;;;;;;141.73;77.65;;;;;;;8.55;100.00;101046.78;5102832;28;20024;-62
2021/05/12 04:41:16;;;;;;;141.30;77.60;;;;;;;8.51;100.00;101050.22;5104050;28;20473;-63
2021/05/12 04:43:42;;;;;;;137.43;77.63;;;;;;;8.48;100.00;101053.66;5101452;28;20040;-72
2021/05/12 04:46:07;;;;;;;148.88;82.93;;;;;;;8.47;100.00;101053.66;5104674;28;20615;-72
2021/05/12 04:48:32;;;;;;;141.50;80.22;;;;;;;8.47;100.00;101056.28;5101460;28;20032;-73
2021/05/12 04:50:59;;;;;;;154.30;84.43;;;;;;;8.52;100.00;101059.91;5104106;28;20046;-73
2021/05/12 04:53:24;;;;;;;158.07;88.63;;;;;;;8.53;100.00;101059.91;5102073;28;20077;-72
2021/05/12 04:55:49;;;;;;;147.15;82.10;;;;;;;8.56;100.00;101064.31;5102920;28;20020;-73
2021/05/12 04:58:15;;;;;;;145.43;85.05;;;;;;;8.53;100.00;101066.91;5103525;28;20023;-73
2021/05/12 05:00:40;;;;;;;140.85;83.78;;;;;;;8.55;100.00;101067.84;5101322;28;20081;-72
2021/05/12 05:03:07;;;;;;;148.27;86.70;;;;;;;8.56;100.00;101059.06;5104786;28;20031;-72
2021/05/12 05:05:33;;;;;;;148.38;89.20;;;;;;;8.60;100.00;101060.00;5096898;28;20107;-72
2021/05/12 05:07:58;;;;;;;139.45;83.32;;;;;;;8.64;100.00;101062.72;5103856;28;20102;-74
2021/05/12 05:10:23;;;;;;;137.40;81.13;;;;;;;8.67;100.00;101072.44;5102820;28;20023;-71
2021/05/12 05:12:49;;;;;;;142.73;84.30;;;;;;;8.71;100.00;101064.59;5102563;28;20028;-72
2021/05/12 05:15:16;;;;;;;135.23;81.18;;;;;;;8.79;100.00;101069.09;5103454;28;20114;-71
2021/05/12 05:17:42;;;;;;;132.25;79.18;;;;;;;8.83;100.00;101073.56;5089816;28;20070;-71
2021/05/12 05:20:08;;;;;;;127.57;76.50;;;;;;;8.87;100.00;101076.25;5089327;28;20028;-73
2021/05/12 05:22:35;;;;;;;128.95;76.35;;;;;;;8.91;100.00;101077.16;5090355;28;20135;-66
2021/05/12 05:25:01;;;;;;;121.85;73.75;;;;;;;8.97;100.00;101079.00;5091960;28;20055;-74
2021/05/12 05:27:26;;;;;;;121.38;72.63;;;;;;;9.01;100.00;101079.09;5090186;28;20475;-74
2021/05/12 05:29:51;;;;;;;126.22;74.47;;;;;;;9.10;100.00;101082.72;5090843;28;20133;-71
2021/05/12 05:32:17;;;;;;;124.53;71.57;;;;;;;9.14;100.00;101088.03;5091168;28;20016;-68
2021/05/12 05:34:42;;;;;;;118.47;71.53;;;;;;;9.18;100.00;101083.72;5091139;28;20028;-73
2021/05/12 05:37:08;;;;;;;121.03;75.13;;;;;;;9.24;100.00;101087.31;5092585;28;20113;-69
2021/05/12 05:39:36;;;;;;;120.53;70.63;;;;;;;9.32;100.00;101089.16;5090717;28;20059;-68
2021/05/12 05:42:03;;;;;;;112.72;66.13;;;;;;;9.34;100.00;101083.06;5092197;28;20506;-72
2021/05/12 05:44:29;;;;;;;104.32;62.00;;;;;;;9.38;100.00;101079.59;5094252;28;20495;-73
2021/05/12 05:46:55;;;;;;;109.88;67.72;;;;;;;9.40;100.00;101085.75;5090986;28;20024;-70
2021/05/12 05:49:20;;;;;;;108.38;63.38;;;;;;;9.47;100.00;101089.38;5091719;28;20055;-70
2021/05/12 05:51:46;;;;;;;104.05;61.97;;;;;;;9.51;100.00;101092.94;5091145;28;20060;-72
2021/05/12 05:54:11;;;;;;;101.07;60.60;;;;;;;9.64;100.00;101084.31;5091084;28;20032;-70
2021/05/12 05:56:36;;;;;;;106.10;63.40;;;;;;;9.69;100.00;101085.25;5089790;28;20020;-74
2021/05/12 05:59:02;;;;;;;99.07;58.25;;;;;;;9.67;100.00;101081.72;5090754;28;20431;-75
2021/05/12 06:01:27;;;;;;;86.97;54.22;;;;;;;9.71;100.00;101083.53;5091096;28;20035;-80
2021/05/12 06:03:52;;;;;;;80.85;50.40;;;;;;;9.84;100.00;101088.94;5091526;28;20024;-72
2021/05/12 06:06:18;;;;;;;80.15;48.95;;;;;;;9.87;100.00;101083.69;5095064;28;20064;-64
2021/05/12 06:08:43;;;;;;;78.20;43.30;;;;;;;9.93;98.93;101086.38;5095096;28;20114;-69
2021/05/12 06:11:10;;;;;;;71.53;40.90;;;;;;;10.06;95.20;101082.13;5094396;28;20103;-66
2021/05/12 06:13:35;;;;;;;62.25;35.85;;;;;;;10.07;93.54;101086.53;5095670;28;20027;-68
2021/05/12 06:16:03;;;;;;;69.75;42.55;;;;;;;10.13;95.32;101086.59;5094622;28;20028;-72
2021/05/12 06:18:28;;;;;;;70.97;38.30;;;;;;;10.16;92.52;101091.91;5094673;28;20027;-72
2021/05/12 06:20:53;;;;;;;66.45;38.15;;;;;;;10.19;92.32;101085.78;5095193;28;20035;-72
2021/05/12 06:23:19;;;;;;;62.75;37.03;;;;;;;10.26;91.11;101084.97;5095685;28;20026;-68
2021/05/12 06:25:44;;;;;;;58.35;33.22;;;;;;;10.27;86.89;101081.47;5098379;28;20035;-67
2021/05/12 06:28:09;;;;;;;59.65;33.63;;;;;;;10.31;84.75;101080.63;5095401;28;20023;-66
2021/05/12 06:30:35;;;;;;;56.35;30.98;;;;;;;10.42;84.42;101080.75;5093126;28;20028;-65
2021/05/12 06:33:00;;;;;;;53.95;33.17;;;;;;;10.42;85.52;101075.47;5095871;28;20028;-66
2021/05/12 06:35:25;;;;;;;59.05;33.38;;;;;;;10.56;84.18;101080.88;5093653;28;20366;-68
2021/05/12 06:37:51;;;;;;;57.97;31.75;;;;;;;10.63;83.27;101080.06;5094087;28;20024;-70
2021/05/12 06:40:16;;;;;;;58.20;37.47;;;;;;;10.64;87.13;101084.44;5091999;27;20024;-74
2021/05/12 06:42:43;;;;;;;60.15;34.25;;;;;;;10.68;83.56;101086.25;5089169;28;21032;-72
2021/05/12 06:45:12;;;;;;;60.03;36.03;;;;;;;10.76;86.59;101083.66;5095469;28;20478;-70
2021/05/12 06:47:39;;;;;;;59.22;36.35;;;;;;;10.79;84.81;101084.56;5090129;28;20491;-77
2021/05/12 06:50:05;;;;;;;64.82;38.28;;;;;;;10.84;84.97;101089.88;5091759;28;20397;-74
2021/05/12 06:52:31;;;;;;;60.53;36.67;;;;;;;10.92;84.67;101087.28;5088268;28;20016;-75
2021/05/12 06:54:56;;;;;;;61.70;34.45;;;;;;;10.95;82.53;101088.22;5091512;28;20022;-72
2021/05/12 06:57:21;;;;;;;54.08;30.40;;;;;;;11.03;80.10;101090.91;5087255;28;20024;-77
2021/05/12 06:59:47;;;;;;;51.50;31.85;;;;;;;11.03;80.10;101077.66;5086664;28;20028;-70
2021/05/12 07:02:12;;;;;;;54.25;29.15;;;;;;;11.07;78.76;101082.09;5087172;28;20023;-76
2021/05/12 07:04:37;;;;;;;52.10;30.15;;;;;;;11.18;82.27;101091.88;5090498;28;20035;-69
2021/05/12 07:07:03;;;;;;;48.75;28.05;;;;;;;11.17;76.77;101088.34;5088478;28;20028;-70
2021/05/12 07:09:28;;;;;;;46.05;23.00;;;;;;;11.19;76.58;101083.94;5088110;28;20042;-69
2021/05/12 07:11:53;;;;;;;48.72;26.92;;;;;;;11.21;76.15;101083.94;5090131;28;20512;-67
2021/05/12 07:14:18;;;;;;;38.88;20.60;;;;;;;11.29;74.81;101075.16;5088454;28;20115;-72
2021/05/12 07:16:44;;;;;;;41.08;20.38;;;;;;;11.33;74.86;101078.72;5088403;28;20169;-73
2021/05/12 07:19:09;;;;;;;44.35;21.23;;;;;;;11.38;75.08;101081.41;5094092;28;20114;-74
2021/05/12 07:21:35;;;;;;;44.45;21.80;;;;;;;11.42;75.06;101080.53;5095014;28;20032;-75
2021/05/12 07:24:00;;;;;;;40.03;18.23;;;;;;;11.40;70.50;101083.19;5090697;28;20044;-77
2021/05/12 07:26:25;;;;;;;37.90;18.20;;;;;;;11.50;73.53;101079.69;5088212;28;20479;-72
2021/05/12 07:28:51;;;;;;;41.10;19.77;;;;;;;11.51;69.74;101091.16;5088138;28;20020;-73
2021/05/12 07:31:19;;;;;;;40.90;17.38;;;;;;;11.58;70.94;101094.72;5092267;28;20021;-74
2021/05/12 07:33:44;;;;;;;44.78;19.77;;;;;;;11.61;70.01;101089.44;5087382;28;21156;-73
2021/05/12 07:36:10;;;;;;;40.60;18.65;;;;;;;11.67;69.90;101094.75;5094951;27;20032;-71
2021/05/12 07:38:35;;;;;;;36.55;16.23;;;;;;;11.78;67.18;101102.72;5092295;28;20024;-72
2021/05/12 07:41:02;;;;;;;36.92;17.02;;;;;;;11.84;67.90;101100.13;5091955;28;20028;-69
2021/05/12 07:43:28;;;;;;;39.45;18.70;;;;;;;11.92;68.48;101093.06;5093367;28;20027;-68
2021/05/12 07:45:56;;;;;;;39.97;18.17;;;;;;;12.05;67.93;101091.38;5092465;28;20056;-66
2021/05/12 07:48:22;;;;;;;40.75;18.35;;;;;;;12.09;66.28;101095.78;5090878;28;20035;-66
2021/05/12 07:50:47;;;;;;;39.50;20.38;;;;;;;12.20;66.65;101094.06;5092381;28;20028;-64
2021/05/12 07:53:12;;;;;;;42.17;21.05;;;;;;;12.35;67.61;101102.91;5092743;28;21105;-66
2021/05/12 07:55:38;;;;;;;42.92;22.25;;;;;;;12.48;68.02;101102.03;5092221;28;20079;-63
2021/05/12 07:58:04;;;;;;;42.38;23.00;;;;;;;12.47;66.88;101096.72;5092840;28;20116;-64
2021/05/12 08:00:32;;;;;;;48.42;24.00;;;;;;;12.52;68.31;101101.16;5091603;28;20107;-63
2021/05/12 08:02:57;;;;;;;43.00;23.85;;;;;;;12.63;68.54;101094.97;5093388;28;20118;-65
2021/05/12 08:05:22;;;;;;;43.55;24.25;;;;;;;12.81;68.26;101096.72;5091619;28;20108;-65
2021/05/12 08:07:48;;;;;;;45.92;24.75;;;;;;;12.94;67.10;101086.97;5091993;28;20078;-65
2021/05/12 08:10:13;;;;;;;39.55;19.90;;;;;;;13.07;65.00;101088.72;5093495;28;20115;-65
2021/05/12 08:12:38;;;;;;;41.83;21.45;;;;;;;13.15;64.07;101096.66;5097288;28;20020;-67
2021/05/12 08:15:04;;;;;;;39.97;21.33;;;;;;;13.09;63.19;101089.59;5104320;28;20028;-65
2021/05/12 08:17:30;;;;;;;43.47;24.20;;;;;;;13.16;64.78;101094.00;5102518;28;20481;-64
2021/05/12 08:19:57;;;;;;;41.25;23.33;;;;;;;13.12;63.36;101091.34;5103236;28;20424;-64
2021/05/12 08:22:23;;;;;;;41.75;21.98;;;;;;;13.15;63.76;101080.72;5103534;27;20373;-64
2021/05/12 08:24:48;;;;;;;42.42;21.63;;;;;;;13.32;65.03;101086.00;5102428;28;20030;-64
2021/05/12 08:27:13;;;;;;;38.45;20.67;;;;;;;13.60;62.35;101090.38;5104048;28;20481;-63
2021/05/12 08:29:43;;;;;;;40.00;19.88;;;;;;;13.87;61.41;101093.75;5101298;28;20070;-64
2021/05/12 08:32:14;;;;;;;38.25;20.00;;;;;;;14.03;60.63;101099.88;5097696;28;20041;-63
2021/05/12 08:34:40;;;;;;;38.43;19.03;;;;;;;14.22;61.29;101099.78;5092218;28;20024;-65
2021/05/12 08:37:07;;;;;;;37.53;17.17;;;;;;;14.19;59.01;101091.81;5091756;28;20093;-65
2021/05/12 08:39:33;;;;;;;31.63;13.82;;;;;;;14.13;55.32;101096.28;5091551;28;20111;-65
2021/05/12 08:41:59;;;;;;;31.90;12.43;;;;;;;14.13;56.01;101084.75;5092356;28;20047;-65
2021/05/12 08:44:24;;;;;;;32.55;11.98;;;;;;;14.19;55.39;101086.50;5091105;28;20020;-64
2021/05/12 08:46:50;;;;;;;31.23;11.27;;;;;;;14.35;54.40;101087.28;5093543;28;20024;-64
2021/05/12 08:49:16;;;;;;;31.23;10.38;;;;;;;14.61;52.29;101085.31;5090400;28;20032;-64
2021/05/12 08:51:42;;;;;;;31.50;10.88;;;;;;;14.78;53.99;101074.53;5088777;28;20054;-64
2021/05/12 08:54:08;;;;;;;29.75;10.50;;;;;;;14.88;51.90;101083.31;5093274;28;20491;-63
2021/05/12 08:56:34;;;;;;;30.42;9.40;;;;;;;15.08;52.32;101079.56;5091063;28;20051;-64
2021/05/12 08:59:01;;;;;;;29.83;8.82;;;;;;;15.11;50.61;101082.19;5093055;28;20455;-64
2021/05/12 09:01:27;;;;;;;22.60;5.57;;;;;;;15.35;46.98;101078.38;5091214;28;20028;-64
2021/05/12 09:03:52;;;;;;;24.40;6.07;;;;;;;15.20;47.89;101087.41;5093206;28;20383;-63
2021/05/12 09:06:18;;;;;;;27.45;6.82;;;;;;;15.20;47.87;101074.09;5086458;28;20031;-64
2021/05/12 09:08:46;;;;;;;26.50;6.53;;;;;;;15.60;47.69;101081.63;5089745;28;20032;-64
2021/05/12 09:11:12;;;;;;;25.00;6.82;;;;;;;15.72;45.26;101069.03;5087266;28;20016;-63
2021/05/12 09:13:38;;;;;;;29.45;7.15;;;;;;;15.93;46.02;101071.44;5087918;28;20016;-62
2021/05/12 09:16:46;;;;;;;29.05;7.57;;;;;;;16.12;45.46;101079.16;5088178;28;20348;-63
2021/05/12 09:19:13;;;;;;;27.52;7.20;;;;;;;16.01;46.62;101074.88;5088392;28;20128;-62
2021/05/12 09:22:00;;;;;;;27.95;8.90;;;;;;;16.10;47.68;101078.31;5091704;28;20085;-62
2021/05/12 09:24:41;;;;;;;25.20;6.82;;;;;;;16.77;44.75;101073.66;5091941;28;20023;-65
2021/05/12 09:27:12;;;;;;;27.58;8.65;;;;;;;17.05;44.75;101073.19;5092265;28;20030;-63
2021/05/12 09:29:41;;;;;;;28.35;8.85;;;;;;;16.83;43.54;101070.00;5090268;28;20024;-63
2021/05/12 09:32:14;;;;;;;26.88;7.68;;;;;;;17.33;45.21;101073.53;5090028;28;20032;-63
2021/05/12 09:35:01;;;;;;;30.10;8.77;;;;;;;17.46;43.18;101070.59;5089497;28;20382;-63
2021/05/12 09:37:40;;;;;;;27.17;7.80;;;;;;;17.42;42.95;101065.31;5090975;28;20081;-63
2021/05/12 09:40:09;;;;;;;28.70;8.60;;;;;;;17.56;42.65;101065.06;5093511;28;20028;-63
2021/05/12 09:42:37;;;;;;;29.65;8.68;;;;;;;17.53;42.06;101066.88;5099787;28;20070;-63
2021/05/12 09:45:14;;;;;;;27.70;6.95;;;;;;;17.82;42.32;101065.38;5103946;28;20039;-63
2021/05/12 09:47:41;;;;;;;26.27;6.57;;;;;;;18.90;38.71;101065.50;5102092;28;20033;-64
2021/05/12 09:50:16;;;;;;;23.27;5.20;;;;;;;18.86;39.18;101064.72;5107462;28;20059;-64
2021/05/12 09:52:43;;;;;;;25.05;5.13;;;;;;;18.27;39.86;101067.94;5105395;28;20023;-63
2021/05/12 09:55:09;;;;;;;24.90;5.78;;;;;;;17.91;40.25;101073.22;5107439;28;20223;-64
2021/05/12 09:57:36;;;;;;;24.63;6.15;;;;;;;17.59;39.46;101061.41;5104157;28;20359;-63
2021/05/12 10:00:22;;;;;;;26.10;6.10;;;;;;;17.54;41.50;101066.00;5107966;28;20019;-63
2021/05/12 10:02:47;;;;;;;26.40;6.38;;;;;;;17.95;41.48;101066.91;5104133;28;20020;-64
2021/05/12 10:05:13;;;;;;;22.88;5.90;;;;;;;18.98;39.02;101055.47;5106583;28;20377;-63
2021/05/12 10:07:49;;;;;;;25.75;6.13;;;;;;;21.38;36.04;101056.78;5104606;28;20522;-72
2021/05/12 10:10:33;;;;;;;26.88;5.70;;;;;;;23.68;32.34;101056.13;5106370;28;20028;-72
2021/05/12 10:12:59;;;;;;;26.10;5.10;;;;;;;24.78;29.68;101058.03;5107696;28;20027;-72
2021/05/12 10:15:24;;;;;;;22.27;4.93;;;;;;;26.15;27.27;101047.03;5104864;28;20019;-73
2021/05/12 10:17:49;;;;;;;23.17;4.90;;;;;;;26.79;25.16;101054.09;5105947;28;20115;-68
2021/05/12 10:20:15;;;;;;;21.98;5.00;;;;;;;25.91;26.68;101053.72;5099299;28;20406;-64
2021/05/12 10:22:41;;;;;;;24.70;5.60;;;;;;;25.29;26.50;101047.22;5100707;28;20048;-63
2021/05/12 10:25:07;;;;;;;25.38;6.32;;;;;;;23.29;29.50;101051.66;5088811;28;20518;-66
2021/05/12 10:27:33;;;;;;;25.33;6.13;;;;;;;21.46;32.62;101051.97;5091533;28;20070;-63
2021/05/12 10:30:03;;;;;;;23.40;6.10;;;;;;;19.92;34.56;101044.72;5091963;28;20028;-64
2021/05/12 10:32:34;;;;;;;24.13;5.68;;;;;;;19.48;35.15;101047.78;5085061;28;20032;-63
2021/05/12 10:35:07;;;;;;;26.23;5.90;;;;;;;19.53;36.80;101044.97;5095758;28;20028;-63
2021/05/12 10:37:37;;;;;;;26.02;5.80;;;;;;;20.51;35.64;101038.28;5088477;28;20081;-66
2021/05/12 10:40:16;;;;;;;24.00;6.47;;;;;;;19.81;35.67;101041.47;5097450;28;20034;-68
2021/05/12 10:43:05;;;;;;;24.88;6.18;;;;;;;19.20;37.46;101041.47;5089314;28;20027;-63
2021/05/12 10:48:43;;;;;;;25.15;6.28;;;;;;;18.46;38.54;101042.50;5091182;28;20119;-64
2021/05/12 10:51:21;;;;;;;25.35;6.10;;;;;;;18.21;39.51;101042.22;5083312;28;20088;-63
2021/05/12 10:53:49;;;;;;;27.10;6.95;;;;;;;18.26;39.14;101037.63;5090682;28;20178;-66
2021/05/12 10:56:16;;;;;;;24.25;7.25;;;;;;;18.72;38.05;101032.03;5089999;28;20050;-65
2021/05/12 10:59:04;;;;;;;24.13;6.57;;;;;;;21.80;35.06;101033.69;5086946;28;20109;-64
2021/05/12 11:01:52;;;;;;;25.52;7.80;;;;;;;22.93;31.84;101036.16;5089580;28;20019;-68
2021/05/12 11:04:21;;;;;;;26.95;9.30;;;;;;;21.02;32.63;101031.19;5091232;28;20102;-66
2021/05/12 11:06:56;;;;;;;25.35;8.52;;;;;;;19.22;36.69;101024.44;5091553;28;20032;-64
2021/05/12 11:09:36;;;;;;;26.73;8.48;;;;;;;18.74;38.48;101024.81;5092709;28;20032;-64
2021/05/12 11:12:18;;;;;;;24.35;8.38;;;;;;;18.27;40.32;101025.13;5092994;28;20522;-63